INFORMAÇÕES METEOROLÓGICAS
METAR FOR SBVH
ADDS - METARS form results

(0151 UTC 25 April 2019)
Data provider http://aviationweather.gov/metar/data/
 
Forecast for: SBVH (VILHENA , BR)
Text: TAF SBVH 242200Z 2500/2512 33004KT 8000 SCT010 TN20/2506Z TX23/2511Z
Forecast period: 0000 to 1200 UTC 25 April 2019
Forecast type: FROM: standard forecast or significant change
Winds: from the NNW (330 degrees) at 5 MPH (4 knots; 2.1 m/s)
Visibility: 5 miles (8 km)
Ceiling: at least 12,000 feet AGL
Clouds: scattered clouds at 1000 feet AGL
Weather: no significant weather forecast for this period
Text: TEMPO 2510/2512 3000 BR BKN005 RMK PEU
Forecast period: 1000 to 1200 UTC 25 April 2019
Forecast type: TEMPORARY: The following changes expected for less than half the time period
Visibility: 1.86 miles (2.99 km)
Ceiling: 500 feet AGL
Clouds: broken clouds at 500 feet AGL
Weather: BR  (mist)

 MAPA DO AEROPORTO

 INFORMAÇÕES DA PISTA
Pista 3 Tamanho da pista 8530 ft Largura da pista 98 ft
Elevação da pista 0 ft Ranhura da pista 0 ft Proa da pista 0
Pista 21 Tamanho da pista 8530 ft Largura da pista 98 ft
Elevação da pista 0 ft Ranhura da pista 0 ft Proa da pista 0

 FREQUÊNCIAS DO AEROPORTO
Tipo AFIS Nome RDO Frequência 125.9 MHZ

 AUXÍLIOS DE NAVEGAÇÃO PRÓXIMOS AO AEROPORTO
Tipo VOR-DME Nome Vilhena Frequência 112100 KHZ
Tipo NDB Nome Vilhena Frequência 395 KHZ





Powered by Virtual Airlines Manager [v2.6.2]